TimeAKST,TemperatureF,Dew PointF,Humidity,Sea Level PressureIn,VisibilityMPH,Wind Direction,Wind SpeedMPH,Gust SpeedMPH,PrecipitationIn,Events,Conditions,WindDirDegrees,DateUTC
12:15 AM,33.8,33.8,100,29.99,4.0,Calm,Calm,-,0.01,Rain,Light Rain,0,2013-01-13 09:15:00
12:32 AM,33.8,33.8,100,29.99,2.0,Calm,Calm,-,0.02,Rain,Light Rain,0,2013-01-13 09:32:00
12:43 AM,33.8,33.8,100,30.00,6.0,South,3.5,-,0.02,Rain,Light Rain,190,2013-01-13 09:43:00
12:53 AM,34.0,34.0,100,30.01,6.0,SSE,3.5,-,0.03,Rain,Light Rain,150,2013-01-13 09:53:00
1:08 AM,35.6,33.8,93,30.01,5.0,Calm,Calm,-,0.01,Rain,Light Rain,0,2013-01-13 10:08:00
1:16 AM,35.6,33.8,93,30.00,4.0,Calm,Calm,-,0.01,Rain,Light Rain,0,2013-01-13 10:16:00
1:23 AM,33.8,33.8,100,30.00,4.0,NW,3.5,-,0.02,Rain,Light Rain,320,2013-01-13 10:23:00
1:27 AM,33.8,33.8,100,30.00,4.0,North,4.6,-,0.03,Rain,Light Rain,350,2013-01-13 10:27:00
1:53 AM,34.0,34.0,100,30.01,6.0,East,4.6,-,0.04,Rain,Light Rain,80,2013-01-13 10:53:00
2:00 AM,33.8,33.8,100,30.02,6.0,Calm,Calm,-,0.01,Rain,Light Rain,0,2013-01-13 11:00:00
3:53 AM,34.0,34.0,100,30.01,6.0,Calm,Calm,-,0.02,Rain,Light Rain,0,2013-01-13 12:53:00
4:53 AM,34.0,33.1,96,29.99,5.0,Calm,Calm,-,0.01,,Overcast,0,2013-01-13 13:53:00
5:53 AM,34.0,33.1,96,29.98,5.0,Calm,Calm,-,0.02,Rain,Light Rain,0,2013-01-13 14:53:00
6:53 AM,34.0,34.0,100,29.99,6.0,Calm,Calm,-,0.05,Rain,Light Rain,0,2013-01-13 15:53:00
7:11 AM,33.8,33.8,100,29.99,5.0,Calm,Calm,-,0.03,Rain,Light Rain,0,2013-01-13 16:11:00
7:27 AM,35.6,33.8,93,29.99,5.0,South,3.5,-,0.04,Rain,Light Rain,180,2013-01-13 16:27:00
7:50 AM,35.6,33.8,93,29.99,7.0,Calm,Calm,-,0.07,Rain,Light Rain,0,2013-01-13 16:50:00
7:53 AM,35.1,34.0,96,30.00,7.0,Calm,Calm,-,0.07,Rain,Light Rain,0,2013-01-13 16:53:00
8:15 AM,33.8,33.8,100,29.98,6.0,Calm,Calm,-,0.02,Rain,Light Rain,0,2013-01-13 17:15:00
8:53 AM,34.0,34.0,100,29.97,8.0,Calm,Calm,-,0.03,Rain,Light Rain,0,2013-01-13 17:53:00
9:53 AM,34.0,34.0,100,29.93,10.0,Calm,Calm,-,0.01,,Overcast,0,2013-01-13 18:53:00
10:11 AM,33.8,33.8,100,29.93,9.0,SE,3.5,-,0.00,Rain,Light Rain,130,2013-01-13 19:11:00
10:19 AM,33.8,33.8,100,29.93,8.0,Calm,Calm,-,0.00,Rain,Light Rain,0,2013-01-13 19:19:00
10:29 AM,35.6,33.8,93,29.93,8.0,Calm,Calm,-,0.00,Rain,Light Rain,0,2013-01-13 19:29:00
10:53 AM,35.1,35.1,100,29.93,6.0,Calm,Calm,-,0.01,Rain,Light Rain,0,2013-01-13 19:53:00
11:00 AM,33.8,33.8,100,29.93,4.0,Calm,Calm,-,0.01,Rain,Light Rain,0,2013-01-13 20:00:00
11:24 AM,35.6,35.6,100,29.93,4.0,Calm,Calm,-,0.02,Rain,Light Rain,0,2013-01-13 20:24:00
11:32 AM,35.6,33.8,93,29.93,2.5,Calm,Calm,-,0.03,Rain,Light Rain,0,2013-01-13 20:32:00
11:53 AM,35.1,35.1,100,29.92,1.8,SE,4.6,-,0.06,Rain,Light Rain,140,2013-01-13 20:53:00
11:58 AM,35.6,35.6,100,29.92,3.0,Calm,Calm,-,0.00,Rain,Light Rain,0,2013-01-13 20:58:00
12:19 PM,35.6,35.6,100,29.91,6.0,SE,3.5,-,0.02,Rain,Light Rain,130,2013-01-13 21:19:00
12:24 PM,35.6,35.6,100,29.90,6.0,Calm,Calm,-,0.03,Rain,Light Rain,0,2013-01-13 21:24:00
12:34 PM,35.6,35.6,100,29.90,2.5,SSE,3.5,-,0.03,Rain,Light Rain,150,2013-01-13 21:34:00
12:53 PM,36.0,36.0,100,29.89,7.0,South,3.5,-,0.05,Rain,Light Rain,190,2013-01-13 21:53:00
1:06 PM,35.6,35.6,100,29.89,6.0,SSE,3.5,-,0.01,Rain,Light Rain,160,2013-01-13 22:06:00
1:53 PM,36.0,36.0,100,29.87,5.0,Calm,Calm,-,0.04,Rain,Light Rain,0,2013-01-13 22:53:00
2:00 PM,35.6,35.6,100,29.87,6.0,Calm,Calm,-,0.01,Rain,Light Rain,0,2013-01-13 23:00:00
2:07 PM,35.6,35.6,100,29.87,7.0,South,3.5,-,0.01,Rain,Light Rain,180,2013-01-13 23:07:00
2:27 PM,35.6,35.6,100,29.86,6.0,SSE,3.5,-,0.03,Rain,Light Rain,160,2013-01-13 23:27:00
2:53 PM,35.1,35.1,100,29.85,5.0,Calm,Calm,-,0.05,Rain,Light Rain,0,2013-01-13 23:53:00
3:07 PM,35.6,33.8,93,29.85,6.0,Calm,Calm,-,0.01,Rain,Light Rain,0,2013-01-14 00:07:00
3:23 PM,33.8,33.8,100,29.85,3.0,NNW,3.5,-,0.02,Rain,Light Rain,340,2013-01-14 00:23:00
3:36 PM,33.8,33.8,100,29.84,3.0,NNW,3.5,-,0.03,Rain,Light Rain,340,2013-01-14 00:36:00
3:53 PM,34.0,33.1,96,29.83,4.0,Calm,Calm,-,0.05,Rain,Light Rain,0,2013-01-14 00:53:00
4:50 PM,33.8,33.8,100,29.81,2.5,Calm,Calm,-,0.03,Rain,Light Rain,0,2013-01-14 01:50:00
4:53 PM,34.0,33.1,96,29.81,3.0,Calm,Calm,-,0.03,Rain,Light Rain,0,2013-01-14 01:53:00
5:02 PM,33.8,33.8,100,29.81,4.0,Calm,Calm,-,0.00,Rain,Light Rain,0,2013-01-14 02:02:00
5:27 PM,33.8,33.8,100,29.80,2.5,Calm,Calm,-,0.02,Rain,Light Rain,0,2013-01-14 02:27:00
5:36 PM,33.8,33.8,100,29.80,3.0,Calm,Calm,-,0.03,Rain,Light Rain,0,2013-01-14 02:36:00
5:53 PM,34.0,33.1,96,29.81,4.0,Calm,Calm,-,0.04,Rain,Light Rain,0,2013-01-14 02:53:00
6:04 PM,33.8,33.8,100,29.80,4.0,Calm,Calm,-,0.01,Rain,Light Rain,0,2013-01-14 03:04:00
6:33 PM,33.8,33.8,100,29.79,2.5,Calm,Calm,-,0.01,Rain,Light Rain,0,2013-01-14 03:33:00
6:53 PM,34.0,34.0,100,29.80,2.5,Calm,Calm,-,0.02,Rain,Light Rain,0,2013-01-14 03:53:00
7:24 PM,33.8,33.8,100,29.78,2.0,Calm,Calm,-,0.02,Rain,Light Rain,0,2013-01-14 04:24:00
7:53 PM,34.0,34.0,100,29.78,2.5,Calm,Calm,-,0.02,Rain,Light Rain,0,2013-01-14 04:53:00
8:10 PM,35.6,35.6,100,29.78,4.0,NNW,3.5,-,0.01,Rain,Light Rain,340,2013-01-14 05:10:00
8:29 PM,35.6,35.6,100,29.78,2.5,Calm,Calm,-,0.01,Rain,Light Rain,0,2013-01-14 05:29:00
8:44 PM,35.6,35.6,100,29.78,1.8,Calm,Calm,-,0.02,Rain,Light Rain,0,2013-01-14 05:44:00
8:53 PM,36.0,35.1,97,29.78,2.5,Calm,Calm,-,0.02,Rain,Light Rain,0,2013-01-14 05:53:00
9:00 PM,35.6,35.6,100,29.77,2.0,NNW,3.5,-,0.01,Rain,Light Rain,330,2013-01-14 06:00:00
9:15 PM,35.6,35.6,100,29.78,4.0,Calm,Calm,-,0.02,Rain,Light Rain,0,2013-01-14 06:15:00
9:53 PM,36.0,35.1,97,29.78,4.0,NW,3.5,-,0.03,Rain,Light Rain,320,2013-01-14 06:53:00
10:24 PM,35.6,35.6,100,29.77,1.8,Calm,Calm,-,0.01,Rain,Light Rain,0,2013-01-14 07:24:00
10:53 PM,36.0,35.1,97,29.77,1.2,Calm,Calm,-,0.03,Rain,Light Rain,0,2013-01-14 07:53:00
11:16 PM,35.6,35.6,100,29.76,1.0,Calm,Calm,-,0.01,Rain,Light Rain,0,2013-01-14 08:16:00
11:36 PM,35.6,33.8,93,29.78,1.5,Calm,Calm,-,0.03,Rain,Light Rain,0,2013-01-14 08:36:00
11:46 PM,35.6,35.6,100,29.79,3.0,Calm,Calm,-,0.04,Rain,Light Rain,0,2013-01-14 08:46:00
11:53 PM,36.0,36.0,100,29.78,4.0,Calm,Calm,-,0.05,Rain,Light Rain,0,2013-01-14 08:53:00